Ronnie Rogers — WDD2270 — position and weather

sailwx.info

Track history (hours):
 
Tides and Currents Weather Stations Pressure Air Temp Water Temp Dewpoint Dewpoint Depression Visibility Wind Speed Wind Dir Waves Ship Positions

Ronnie Rogers

Owner: Florida Marine Transporters, Inc., Mandeville, LA. More information available from US FCC via Universal Licensing System and Coast Guard Vessel Documentation Center.

Last reported at 2014-Oct-21 09:07 UTC. Time now 2014-Oct-25 06:20 UTC.
Position N 29°21' W 094°49'.

Length 29 m; draft 3 m.

Type: Towing. MMSI: 367113160.

Date/timePositionNaut miles runAvg speedWind from/ knotsBaromVisibWave heightAir tempDewpointWater temp
2014-Oct-21 09:07N 29°21' W 094°49'4 5.2
2014-Oct-21 08:26N 29°24' W 094°49'6 6.6
2014-Oct-21 07:33N 29°30' W 094°52'7 6.8
2014-Oct-21 06:33N 29°35' W 094°56'7 6.9
2014-Oct-21 05:33N 29°42' W 094°60'6 5.6
2014-Oct-21 04:32N 29°46' W 095°04'2 1.9
2014-Oct-21 03:33N 29°47' W 095°04'2 2.3
2014-Oct-21 02:33N 29°46' W 095°06'1 1.4
2014-Oct-21 01:33N 29°47' W 095°05'1 0.8
2014-Oct-21 00:33N 29°46' W 095°05'4 4.1
2014-Oct-20 23:32N 29°44' W 095°09'2 0.3
2014-Oct-20 14:33N 29°44' W 095°12'0 0.0
2014-Oct-20 13:33N 29°44' W 095°12'0 0.0
2014-Oct-20 12:33N 29°44' W 095°12'0 0.0
2014-Oct-20 11:33N 29°44' W 095°12'0 0.0
2014-Oct-20 10:33N 29°44' W 095°12'0 0.0
2014-Oct-20 09:33N 29°44' W 095°12'0 0.0
2014-Oct-20 08:33N 29°44' W 095°12'1 0.3
2014-Oct-20 03:33N 29°45' W 095°11'5 5.1
2014-Oct-20 02:33N 29°46' W 095°05'2 1.6
2014-Oct-20 01:33N 29°47' W 095°04'6 5.4
2014-Oct-20 00:32N 29°44' W 095°10'2 0.6
2014-Oct-19 20:33N 29°44' W 095°12'0 0.0
2014-Oct-19 19:33N 29°44' W 095°12'0 0.0
2014-Oct-19 18:34N 29°44' W 095°12'0 0.0
2014-Oct-19 17:32N 29°44' W 095°12'0 0.0
2014-Oct-19 16:32N 29°44' W 095°12'0 0.0
2014-Oct-19 15:33N 29°44' W 095°12'0 0.0
2014-Oct-19 14:33N 29°44' W 095°12'0 0.0
2014-Oct-19 13:33N 29°44' W 095°12'0 0.0
2014-Oct-19 12:33N 29°44' W 095°12'0 0.0
2014-Oct-19 11:33N 29°44' W 095°12'0 0.0
2014-Oct-19 00:09N 29°44' W 095°12'4 6.2
2014-Oct-18 23:33N 29°44' W 095°08'5 4.7
2014-Oct-18 22:33N 29°47' W 095°04'2 1.7
2014-Oct-18 21:33N 29°46' W 095°05'1 1.0
2014-Oct-18 20:34N 29°46' W 095°06'0 0.0
2014-Oct-18 19:34N 29°46' W 095°06'0 0.0
2014-Oct-18 18:33N 29°46' W 095°06'0 0.0
2014-Oct-18 17:33N 29°46' W 095°06'0 0.0
2014-Oct-18 16:34N 29°46' W 095°06'0 0.0
2014-Oct-18 15:33N 29°46' W 095°06'0 0.0
2014-Oct-18 14:31N 29°46' W 095°06'0 0.0
2014-Oct-18 13:32N 29°46' W 095°06'0 0.0
2014-Oct-18 06:20N 29°46' W 095°06'0 0.0
2014-Oct-18 05:22N 29°46' W 095°06'0 0.0
2014-Oct-18 04:26N 29°46' W 095°06'0 0.0
2014-Oct-18 02:24N 29°46' W 095°06'0 0.0
2014-Oct-17 20:31N 29°46' W 095°06'0 0.0
2014-Oct-17 19:31N 29°46' W 095°06'0 0.0
2014-Oct-17 14:26N 29°46' W 095°06'0 0.0
2014-Oct-17 13:33N 29°46' W 095°06'0 0.0
2014-Oct-17 12:33N 29°46' W 095°06'0 0.0
2014-Oct-17 11:34N 29°46' W 095°06'0 0.0
2014-Oct-17 10:33N 29°46' W 095°06'0 0.0
2014-Oct-17 09:34N 29°46' W 095°06'1 0.4
2014-Oct-17 07:34N 29°46' W 095°06'2 0.9
2014-Oct-17 05:13N 29°47' W 095°05'1 1.2
2014-Oct-17 04:33N 29°47' W 095°04'2 1.6
2014-Oct-17 03:33N 29°46' W 095°05'5 5.0
2014-Oct-17 02:33N 29°42' W 095°01'5 5.2
2014-Oct-17 01:33N 29°38' W 094°58'6 6.1
2014-Oct-17 00:33N 29°33' W 094°54'6 5.8
2014-Oct-16 23:32N 29°27' W 094°51'6 5.3
2014-Oct-16 22:24N 29°22' W 094°47'1 0.5
2014-Oct-16 20:31N 29°23' W 094°46'  
Track history (hours):
 
Tides and Currents Weather Stations Pressure Air Temp Water Temp Dewpoint Dewpoint Depression Visibility Wind Speed Wind Dir Waves Ship Positions

Ronnie Rogers

Owner: Florida Marine Transporters, Inc., Mandeville, LA. More information available from US FCC via Universal Licensing System and Coast Guard Vessel Documentation Center.

Last reported at 2014-Oct-21 09:07 UTC. Time now 2014-Oct-25 06:20 UTC.
Position N 29°21' W 094°49'.

Length 29 m; draft 3 m.

Type: Towing. MMSI: 367113160.

Date/timePositionNaut miles runAvg speedWind from/ knotsBaromVisibWave heightAir tempDewpointWater temp
2014-Oct-21 09:07N 29°21' W 094°49'4 5.2
2014-Oct-21 08:26N 29°24' W 094°49'6 6.6
2014-Oct-21 07:33N 29°30' W 094°52'7 6.8
2014-Oct-21 06:33N 29°35' W 094°56'7 6.9
2014-Oct-21 05:33N 29°42' W 094°60'6 5.6
2014-Oct-21 04:32N 29°46' W 095°04'2 1.9
2014-Oct-21 03:33N 29°47' W 095°04'2 2.3
2014-Oct-21 02:33N 29°46' W 095°06'1 1.4
2014-Oct-21 01:33N 29°47' W 095°05'1 0.8
2014-Oct-21 00:33N 29°46' W 095°05'4 4.1
2014-Oct-20 23:32N 29°44' W 095°09'2 0.3
2014-Oct-20 14:33N 29°44' W 095°12'0 0.0
2014-Oct-20 13:33N 29°44' W 095°12'0 0.0
2014-Oct-20 12:33N 29°44' W 095°12'0 0.0
2014-Oct-20 11:33N 29°44' W 095°12'0 0.0
2014-Oct-20 10:33N 29°44' W 095°12'0 0.0
2014-Oct-20 09:33N 29°44' W 095°12'0 0.0
2014-Oct-20 08:33N 29°44' W 095°12'1 0.3
2014-Oct-20 03:33N 29°45' W 095°11'5 5.1
2014-Oct-20 02:33N 29°46' W 095°05'2 1.6
2014-Oct-20 01:33N 29°47' W 095°04'6 5.4
2014-Oct-20 00:32N 29°44' W 095°10'2 0.6
2014-Oct-19 20:33N 29°44' W 095°12'0 0.0
2014-Oct-19 19:33N 29°44' W 095°12'0 0.0
2014-Oct-19 18:34N 29°44' W 095°12'0 0.0
2014-Oct-19 17:32N 29°44' W 095°12'0 0.0
2014-Oct-19 16:32N 29°44' W 095°12'0 0.0
2014-Oct-19 15:33N 29°44' W 095°12'0 0.0
2014-Oct-19 14:33N 29°44' W 095°12'0 0.0
2014-Oct-19 13:33N 29°44' W 095°12'0 0.0
2014-Oct-19 12:33N 29°44' W 095°12'0 0.0
2014-Oct-19 11:33N 29°44' W 095°12'0 0.0
2014-Oct-19 00:09N 29°44' W 095°12'4 6.2
2014-Oct-18 23:33N 29°44' W 095°08'5 4.7
2014-Oct-18 22:33N 29°47' W 095°04'2 1.7
2014-Oct-18 21:33N 29°46' W 095°05'1 1.0
2014-Oct-18 20:34N 29°46' W 095°06'0 0.0
2014-Oct-18 19:34N 29°46' W 095°06'0 0.0
2014-Oct-18 18:33N 29°46' W 095°06'0 0.0
2014-Oct-18 17:33N 29°46' W 095°06'0 0.0
2014-Oct-18 16:34N 29°46' W 095°06'0 0.0
2014-Oct-18 15:33N 29°46' W 095°06'0 0.0
2014-Oct-18 14:31N 29°46' W 095°06'0 0.0
2014-Oct-18 13:32N 29°46' W 095°06'0 0.0
2014-Oct-18 06:20N 29°46' W 095°06'0 0.0
2014-Oct-18 05:22N 29°46' W 095°06'0 0.0
2014-Oct-18 04:26N 29°46' W 095°06'0 0.0
2014-Oct-18 02:24N 29°46' W 095°06'0 0.0
2014-Oct-17 20:31N 29°46' W 095°06'0 0.0
2014-Oct-17 19:31N 29°46' W 095°06'0 0.0
2014-Oct-17 14:26N 29°46' W 095°06'0 0.0
2014-Oct-17 13:33N 29°46' W 095°06'0 0.0
2014-Oct-17 12:33N 29°46' W 095°06'0 0.0
2014-Oct-17 11:34N 29°46' W 095°06'0 0.0
2014-Oct-17 10:33N 29°46' W 095°06'0 0.0
2014-Oct-17 09:34N 29°46' W 095°06'1 0.4
2014-Oct-17 07:34N 29°46' W 095°06'2 0.9
2014-Oct-17 05:13N 29°47' W 095°05'1 1.2
2014-Oct-17 04:33N 29°47' W 095°04'2 1.6
2014-Oct-17 03:33N 29°46' W 095°05'5 5.0
2014-Oct-17 02:33N 29°42' W 095°01'5 5.2
2014-Oct-17 01:33N 29°38' W 094°58'6 6.1
2014-Oct-17 00:33N 29°33' W 094°54'6 5.8
2014-Oct-16 23:32N 29°27' W 094°51'6 5.3
2014-Oct-16 22:24N 29°22' W 094°47'1 0.5
2014-Oct-16 20:31N 29°23' W 094°46'  

Dump ship's entire track history